createdAt,value
2023-01-19T00:01:48.587Z,-1.48
2023-01-19T00:04:18.437Z,-1.61
2023-01-19T00:06:47.890Z,-1.52
2023-01-19T00:09:17.310Z,-1.63
2023-01-19T00:11:46.781Z,-1.57
2023-01-19T00:14:16.176Z,-1.57
2023-01-19T00:16:46.932Z,-1.56
2023-01-19T00:19:16.546Z,-1.53
2023-01-19T00:21:45.973Z,-1.57
2023-01-19T00:24:15.742Z,-1.66
2023-01-19T00:26:45.208Z,-1.56
2023-01-19T00:29:16.365Z,-1.62
2023-01-19T00:31:47.214Z,-1.66
2023-01-19T00:34:16.942Z,-1.63
2023-01-19T00:36:46.376Z,-1.68
2023-01-19T00:39:16.172Z,-1.63
2023-01-19T00:42:03.148Z,-1.65
2023-01-19T00:44:32.530Z,-1.74
2023-01-19T00:47:04.824Z,-1.73
2023-01-19T00:49:34.252Z,-1.73
2023-01-19T00:52:03.659Z,-1.69
2023-01-19T00:54:33.166Z,-1.75
2023-01-19T00:57:03.410Z,-1.71
2023-01-19T00:59:32.837Z,-1.77
2023-01-19T01:02:03.753Z,-1.75
2023-01-19T01:04:33.654Z,-1.74
2023-01-19T01:07:03.044Z,-1.84
2023-01-19T01:09:33.082Z,-1.87
2023-01-19T01:12:02.488Z,-1.83
2023-01-19T01:14:31.935Z,-1.94
2023-01-19T01:17:02.820Z,-1.92
2023-01-19T01:19:32.577Z,-1.98
2023-01-19T01:22:05.955Z,-2.09
2023-01-19T01:24:35.460Z,-2.06
2023-01-19T01:27:05.230Z,-2.01
2023-01-19T01:29:35.389Z,-1.99
2023-01-19T01:32:06.402Z,-2.00
2023-01-19T01:34:35.874Z,-2.01
2023-01-19T01:37:08.255Z,-2.07
2023-01-19T01:39:38.554Z,-2.08
2023-01-19T01:42:19.995Z,-2.01
2023-01-19T01:44:53.945Z,-2.01
2023-01-19T01:47:33.985Z,-1.98
2023-01-19T01:50:12.497Z,-2.07
2023-01-19T01:53:06.145Z,-2.09
2023-01-19T01:55:42.803Z,-2.02
2023-01-19T01:58:13.886Z,-2.03
2023-01-19T02:01:01.803Z,-2.01
2023-01-19T02:03:38.816Z,-2.10
2023-01-19T02:06:10.426Z,-2.08
2023-01-19T02:09:06.308Z,-2.07
2023-01-19T02:11:54.709Z,-2.10
2023-01-19T02:14:24.295Z,-2.01
2023-01-19T02:16:56.301Z,-2.08
2023-01-19T02:19:37.623Z,-2.12
2023-01-19T02:22:17.791Z,-2.08
2023-01-19T02:24:49.802Z,-2.08
2023-01-19T02:27:20.288Z,-2.00
2023-01-19T02:29:49.879Z,-2.05
2023-01-19T02:32:19.386Z,-2.00
2023-01-19T02:34:48.845Z,-2.06
2023-01-19T02:37:19.583Z,-2.05
2023-01-19T02:39:55.173Z,-2.09
2023-01-19T02:42:30.959Z,-2.03
2023-01-19T02:45:00.582Z,-2.10
2023-01-19T02:47:40.168Z,-2.14
2023-01-19T02:50:50.561Z,-2.19
2023-01-19T02:54:12.201Z,-2.22
2023-01-19T02:57:21.265Z,-2.14
2023-01-19T03:00:11.931Z,-2.14
2023-01-19T03:03:00.052Z,-2.22
2023-01-19T03:05:50.929Z,-2.12
2023-01-19T03:08:34.272Z,-2.17
2023-01-19T03:11:06.747Z,-2.17
2023-01-19T03:13:48.670Z,-2.23
2023-01-19T03:16:23.661Z,-2.28
2023-01-19T03:18:57.144Z,-2.33
2023-01-19T03:21:29.509Z,-2.33
2023-01-19T03:24:04.245Z,-2.38
2023-01-19T03:26:40.412Z,-2.41
2023-01-19T03:29:14.887Z,-2.38
2023-01-19T03:31:48.910Z,-2.47
2023-01-19T03:34:22.024Z,-2.53
2023-01-19T03:36:57.119Z,-2.42
2023-01-19T03:39:28.948Z,-2.48
2023-01-19T03:42:02.997Z,-2.48
2023-01-19T03:44:37.741Z,-2.48
2023-01-19T03:47:11.292Z,-2.50
2023-01-19T03:49:42.989Z,-2.49
2023-01-19T03:52:14.103Z,-2.52
2023-01-19T03:54:43.878Z,-2.53
2023-01-19T03:57:13.439Z,-2.57
2023-01-19T03:59:44.264Z,-2.65
2023-01-19T04:02:13.746Z,-2.74
2023-01-19T04:04:43.519Z,-2.72
2023-01-19T04:07:13.206Z,-2.71
2023-01-19T04:09:42.909Z,-2.75
2023-01-19T04:12:12.292Z,-2.78
2023-01-19T04:14:43.147Z,-2.76
2023-01-19T04:17:12.569Z,-2.77
2023-01-19T04:19:43.160Z,-2.85
2023-01-19T04:22:12.713Z,-2.86
2023-01-19T04:24:42.169Z,-2.93
2023-01-19T04:27:12.593Z,-2.99
2023-01-19T04:29:43.433Z,-3.04
2023-01-19T04:32:15.084Z,-3.05
2023-01-19T04:34:44.588Z,-3.06
2023-01-19T04:37:14.180Z,-3.09
2023-01-19T04:39:43.516Z,-3.17
2023-01-19T04:42:12.924Z,-3.14
2023-01-19T04:44:43.880Z,-3.20
2023-01-19T04:47:13.300Z,-3.23
2023-01-19T04:49:42.779Z,-3.27
2023-01-19T04:52:12.282Z,-3.20
2023-01-19T04:54:41.756Z,-3.27
2023-01-19T04:57:11.183Z,-3.32
2023-01-19T04:59:40.601Z,-3.38
2023-01-19T05:02:11.916Z,-3.45
2023-01-19T05:04:41.421Z,-3.49
2023-01-19T05:07:11.111Z,-3.53
2023-01-19T05:09:40.693Z,-3.59
2023-01-19T05:12:10.272Z,-3.57
2023-01-19T05:14:39.693Z,-3.57
2023-01-19T05:17:09.167Z,-3.59
2023-01-19T05:19:39.939Z,-3.62
2023-01-19T05:22:09.526Z,-3.68
2023-01-19T05:24:38.931Z,-3.63
2023-01-19T05:27:08.490Z,-3.66
2023-01-19T05:29:37.912Z,-3.65
2023-01-19T05:32:07.418Z,-3.66
2023-01-19T05:34:37.009Z,-3.59
2023-01-19T05:37:07.851Z,-3.55
2023-01-19T05:39:37.298Z,-3.55
2023-01-19T05:42:07.418Z,-3.60
2023-01-19T05:44:36.902Z,-3.51
2023-01-19T05:47:06.577Z,-3.51
2023-01-19T05:49:36.397Z,-3.56
2023-01-19T05:52:07.617Z,-3.61
2023-01-19T05:54:37.133Z,-3.69
2023-01-19T05:57:06.694Z,-3.72
2023-01-19T05:59:36.568Z,-3.75
2023-01-19T06:02:06.213Z,-3.78
2023-01-19T06:04:35.732Z,-3.88
2023-01-19T06:07:07.569Z,-3.90
2023-01-19T06:09:37.018Z,-3.88
2023-01-19T06:12:08.036Z,-3.83
2023-01-19T06:14:38.024Z,-3.88
2023-01-19T06:17:07.956Z,-3.89
2023-01-19T06:19:37.424Z,-3.88
2023-01-19T06:22:08.236Z,-3.88
2023-01-19T06:24:37.659Z,-3.82
2023-01-19T06:27:07.364Z,-3.74
2023-01-19T06:29:36.805Z,-3.69
2023-01-19T06:32:07.552Z,-3.77
2023-01-19T06:34:36.945Z,-3.79
2023-01-19T06:37:07.698Z,-3.86
2023-01-19T06:39:37.953Z,-3.91
2023-01-19T06:42:07.621Z,-3.98
2023-01-19T06:44:37.078Z,-4.03
2023-01-19T06:47:15.369Z,-4.09
2023-01-19T06:49:45.636Z,-4.11
2023-01-19T06:52:18.282Z,-4.11
2023-01-19T06:54:48.216Z,-4.12
2023-01-19T06:57:19.175Z,-4.15
2023-01-19T06:59:48.970Z,-4.17
2023-01-19T07:02:26.197Z,-4.12
2023-01-19T07:04:57.984Z,-4.14
2023-01-19T07:07:28.944Z,-4.10
2023-01-19T07:09:58.347Z,-4.13
2023-01-19T07:12:28.011Z,-4.06
2023-01-19T07:14:57.366Z,-4.12
2023-01-19T07:17:26.846Z,-4.14
2023-01-19T07:19:56.198Z,-4.08
2023-01-19T07:22:25.669Z,-4.09
2023-01-19T07:24:56.739Z,-4.15
2023-01-19T07:27:28.029Z,-4.22
2023-01-19T07:29:57.555Z,-4.28
2023-01-19T07:32:27.347Z,-4.32
2023-01-19T07:34:56.766Z,-4.33
2023-01-19T07:37:26.237Z,-4.34
2023-01-19T07:39:57.048Z,-4.31
2023-01-19T07:42:26.526Z,-4.31
2023-01-19T07:44:55.902Z,-4.26
2023-01-19T07:47:25.350Z,-4.22
2023-01-19T07:49:54.730Z,-4.23
2023-01-19T07:52:24.128Z,-4.24
2023-01-19T07:54:53.521Z,-4.18
2023-01-19T07:57:24.293Z,-4.15
2023-01-19T07:59:53.760Z,-4.00
2023-01-19T08:02:23.323Z,-3.97
2023-01-19T08:04:52.943Z,-3.92
2023-01-19T08:07:22.336Z,-3.91
2023-01-19T08:09:51.681Z,-3.78
2023-01-19T08:12:21.057Z,-3.73
2023-01-19T08:14:52.049Z,-3.73
2023-01-19T08:17:21.618Z,-3.62
2023-01-19T08:19:51.130Z,-3.65
2023-01-19T08:22:20.502Z,-3.62
2023-01-19T08:24:50.517Z,-3.56
2023-01-19T08:27:23.255Z,-3.57
2023-01-19T08:29:54.704Z,-3.53
2023-01-19T08:32:24.138Z,-3.47
2023-01-19T08:34:53.545Z,-3.46
2023-01-19T08:37:22.923Z,-3.49
2023-01-19T08:39:53.867Z,-3.47
2023-01-19T08:42:23.521Z,-3.46
2023-01-19T08:44:58.191Z,-3.42
2023-01-19T08:47:28.234Z,-3.43
2023-01-19T08:49:57.658Z,-3.44
2023-01-19T08:52:29.242Z,-3.40
2023-01-19T08:54:58.585Z,-3.38
2023-01-19T08:57:29.106Z,-3.36
2023-01-19T08:59:59.850Z,-3.32
2023-01-19T09:02:29.746Z,-3.28
2023-01-19T09:04:59.195Z,-3.27
2023-01-19T09:07:29.843Z,-3.20
2023-01-19T09:10:00.922Z,-3.17
2023-01-19T09:12:30.441Z,-3.15
2023-01-19T09:15:01.308Z,-3.08
2023-01-19T09:17:30.796Z,-3.07
2023-01-19T09:20:00.301Z,-3.01
2023-01-19T09:22:30.021Z,-3.00
2023-01-19T09:24:59.907Z,-2.96
2023-01-19T09:27:29.285Z,-2.88
2023-01-19T09:30:00.134Z,-2.90
2023-01-19T09:32:29.527Z,-2.84
2023-01-19T09:34:59.010Z,-2.80
2023-01-19T09:37:28.396Z,-2.73
2023-01-19T09:39:57.846Z,-2.57
2023-01-19T09:42:39.522Z,-2.47
2023-01-19T09:45:20.583Z,-2.36
2023-01-19T09:47:51.984Z,-2.27
2023-01-19T09:50:28.648Z,-2.13
2023-01-19T09:53:07.275Z,-2.00
2023-01-19T09:55:36.727Z,-1.95
2023-01-19T09:58:12.573Z,-1.91
2023-01-19T10:00:47.583Z,-1.91
2023-01-19T10:03:20.554Z,-1.87
2023-01-19T10:05:56.839Z,-1.80
2023-01-19T10:08:40.858Z,-1.80
2023-01-19T10:11:41.833Z,-1.72
2023-01-19T10:14:29.343Z,-1.73
2023-01-19T10:17:14.931Z,-1.66
2023-01-19T10:19:50.668Z,-1.60
2023-01-19T10:22:25.512Z,-1.52
2023-01-19T10:25:00.514Z,-1.45
2023-01-19T10:27:34.207Z,-1.38
2023-01-19T10:30:04.282Z,-1.27
2023-01-19T10:32:36.854Z,-1.25
2023-01-19T10:35:21.838Z,-1.22
2023-01-19T10:37:53.028Z,-1.15
2023-01-19T10:40:33.928Z,-1.08
2023-01-19T10:43:38.201Z,-1.07
2023-01-19T10:46:18.996Z,-1.03
2023-01-19T10:48:54.685Z,-1.05
2023-01-19T10:51:24.380Z,-0.96
2023-01-19T10:54:04.062Z,-0.96
2023-01-19T10:56:37.306Z,-0.93
2023-01-19T10:59:10.586Z,-0.86
2023-01-19T11:01:40.045Z,-0.78
2023-01-19T11:04:30.565Z,-0.73
2023-01-19T11:07:19.126Z,-0.66
2023-01-19T11:09:49.407Z,-0.59
2023-01-19T11:12:22.577Z,-0.47
2023-01-19T11:14:53.823Z,-0.46
2023-01-19T11:17:26.787Z,-0.27
2023-01-19T11:20:03.657Z,-0.26
2023-01-19T11:22:34.794Z,-0.19
2023-01-19T11:25:07.181Z,-0.14
2023-01-19T11:27:38.354Z,-0.19
2023-01-19T11:30:21.319Z,-0.14
2023-01-19T11:32:50.970Z,0.03
2023-01-19T11:35:42.742Z,0.07
2023-01-19T11:38:23.134Z,0.14
2023-01-19T11:40:56.965Z,0.18
2023-01-19T11:43:43.560Z,0.21
2023-01-19T11:46:18.797Z,0.13
2023-01-19T11:48:57.341Z,0.06
2023-01-19T11:51:36.775Z,0.01
2023-01-19T11:54:21.110Z,0.00
2023-01-19T11:56:52.175Z,-0.05
2023-01-19T11:59:24.825Z,-0.07
2023-01-19T12:01:59.077Z,-0.10
2023-01-19T12:04:36.067Z,-0.08
2023-01-19T12:07:10.649Z,-0.05
2023-01-19T12:09:45.347Z,-0.01
2023-01-19T12:12:28.718Z,0.03
2023-01-19T12:15:05.479Z,-0.02
2023-01-19T12:17:41.057Z,-0.16
2023-01-19T12:20:26.537Z,-0.09
2023-01-19T12:23:18.888Z,0.00
2023-01-19T12:26:11.355Z,-0.06
2023-01-19T12:28:45.697Z,-0.07
2023-01-19T12:31:19.011Z,0.05
2023-01-19T12:33:49.236Z,0.12
2023-01-19T12:36:40.273Z,0.37
2023-01-19T12:39:21.059Z,0.40
2023-01-19T12:42:13.099Z,0.41
2023-01-19T12:44:44.046Z,0.38
2023-01-19T12:47:24.264Z,0.37
2023-01-19T12:50:03.167Z,0.34
2023-01-19T12:52:36.117Z,0.45
2023-01-19T12:55:24.424Z,0.50
2023-01-19T12:58:03.989Z,0.65
2023-01-19T13:00:40.152Z,0.75
2023-01-19T13:03:59.611Z,0.83
2023-01-19T13:07:10.418Z,0.67
2023-01-19T13:09:42.540Z,0.61
2023-01-19T13:12:25.968Z,0.44
2023-01-19T13:15:34.246Z,0.45
2023-01-19T13:18:04.574Z,0.28
2023-01-19T13:20:45.713Z,0.38
2023-01-19T13:23:26.257Z,0.35
2023-01-19T13:26:05.692Z,0.25
2023-01-19T13:28:44.468Z,0.23
2023-01-19T13:31:15.355Z,0.26
2023-01-19T13:33:51.832Z,0.27
2023-01-19T13:36:29.149Z,0.23
2023-01-19T13:39:04.658Z,0.11
2023-01-19T13:41:40.384Z,0.19
2023-01-19T13:44:21.375Z,0.16
2023-01-19T13:46:53.658Z,0.23
2023-01-19T13:49:31.496Z,0.11
2023-01-19T13:52:17.775Z,0.18
2023-01-19T13:54:53.168Z,0.18
2023-01-19T13:57:26.553Z,0.06
2023-01-19T14:00:18.900Z,-0.06
2023-01-19T14:03:01.713Z,0.01
2023-01-19T14:05:52.651Z,0.03
2023-01-19T14:13:01.339Z,0.01
2023-01-19T14:15:33.752Z,0.05
2023-01-19T14:18:23.115Z,0.06
2023-01-19T14:21:04.032Z,-0.08
2023-01-19T14:23:48.436Z,-0.04
2023-01-19T14:26:49.483Z,-0.11
2023-01-19T14:29:28.874Z,-0.13
2023-01-19T14:32:17.924Z,-0.19
2023-01-19T14:34:51.088Z,-0.16
2023-01-19T14:37:26.743Z,-0.29
2023-01-19T14:40:04.648Z,-0.35
2023-01-19T14:42:39.433Z,-0.35
2023-01-19T14:45:21.012Z,-0.35
2023-01-19T14:47:59.428Z,-0.50
2023-01-19T14:50:33.030Z,-0.44
2023-01-19T14:53:07.255Z,-0.45
2023-01-19T14:55:45.486Z,-0.43
2023-01-19T14:58:20.630Z,-0.51
2023-01-19T15:00:55.567Z,-0.54
2023-01-19T15:03:38.576Z,-0.53
2023-01-19T15:06:14.737Z,-0.63
2023-01-19T15:08:46.580Z,-0.61
2023-01-19T15:11:24.016Z,-0.65
2023-01-19T15:13:55.091Z,-0.76
2023-01-19T15:16:25.584Z,-0.75
2023-01-19T15:18:55.273Z,-0.69
2023-01-19T15:21:26.711Z,-0.65
2023-01-19T15:23:58.669Z,-0.74
2023-01-19T15:26:28.927Z,-0.78
2023-01-19T15:28:58.609Z,-0.81
2023-01-19T15:31:28.356Z,-0.76
2023-01-19T15:33:58.230Z,-0.79
2023-01-19T15:36:27.773Z,-0.78
2023-01-19T15:38:58.744Z,-0.84
2023-01-19T15:41:30.880Z,-0.85
2023-01-19T15:44:01.514Z,-0.86
2023-01-19T15:46:31.155Z,-0.79
2023-01-19T15:49:00.687Z,-0.81
2023-01-19T15:51:30.395Z,-0.84
2023-01-19T15:54:01.490Z,-0.87
2023-01-19T15:56:32.786Z,-0.87
2023-01-19T15:59:03.359Z,-0.89
2023-01-19T16:02:43.453Z,-1.00
2023-01-19T16:05:13.469Z,-0.93
2023-01-19T16:07:43.348Z,-0.99
2023-01-19T16:10:16.854Z,-1.05
2023-01-19T16:12:47.822Z,-1.09
2023-01-19T16:16:31.469Z,-1.06
2023-01-19T16:19:03.382Z,-1.13
2023-01-19T16:21:33.133Z,-1.12
2023-01-19T16:24:02.837Z,-1.15
2023-01-19T16:26:36.765Z,-1.17
2023-01-19T16:29:10.699Z,-1.21
2023-01-19T16:31:43.384Z,-1.22
2023-01-19T16:34:13.501Z,-1.20
2023-01-19T16:36:43.914Z,-1.23
2023-01-19T16:39:16.495Z,-1.24
2023-01-19T16:41:47.807Z,-1.29
2023-01-19T16:44:18.627Z,-1.28
2023-01-19T16:46:50.067Z,-1.25
2023-01-19T16:49:24.027Z,-1.28
2023-01-19T16:51:54.856Z,-1.28
2023-01-19T16:54:26.676Z,-1.27
2023-01-19T16:56:59.065Z,-1.30
2023-01-19T16:59:29.364Z,-1.29
2023-01-19T17:01:59.303Z,-1.26
2023-01-19T17:04:29.692Z,-1.31
2023-01-19T17:06:59.434Z,-1.34
2023-01-19T17:09:29.186Z,-1.40
2023-01-19T17:12:00.312Z,-1.41
2023-01-19T17:14:30.153Z,-1.39
2023-01-19T17:17:02.900Z,-1.36
2023-01-19T17:22:46.465Z,-1.42
2023-01-19T17:23:15.136Z,-1.39
2023-01-19T17:25:44.880Z,-1.37
2023-01-19T17:28:15.966Z,-1.38
2023-01-19T17:30:45.642Z,-1.45
2023-01-19T17:33:15.312Z,-1.47
2023-01-19T17:35:46.852Z,-1.41
2023-01-19T17:38:16.633Z,-1.46
2023-01-19T17:40:46.292Z,-1.52
2023-01-19T17:43:17.377Z,-1.55
2023-01-19T17:45:47.146Z,-1.55
2023-01-19T17:48:17.467Z,-1.61
2023-01-19T17:50:47.197Z,-1.58
2023-01-19T17:53:16.905Z,-1.60
2023-01-19T17:55:46.735Z,-1.58
2023-01-19T17:58:18.014Z,-1.57
2023-01-19T18:00:47.862Z,-1.59
2023-01-19T18:03:17.678Z,-1.58
2023-01-19T18:05:55.137Z,-1.61
2023-01-19T18:08:24.903Z,-1.61
2023-01-19T18:10:55.685Z,-1.65
2023-01-19T18:13:28.141Z,-1.62
2023-01-19T18:16:01.599Z,-1.65
2023-01-19T18:18:31.983Z,-1.65
2023-01-19T18:21:03.641Z,-1.70
2023-01-19T18:23:33.773Z,-1.72
2023-01-19T18:26:08.086Z,-1.73
2023-01-19T18:28:39.411Z,-1.68
2023-01-19T18:31:11.163Z,-1.69
2023-01-19T18:33:42.358Z,-1.72
2023-01-19T18:36:12.673Z,-1.71
2023-01-19T18:38:43.444Z,-1.75
2023-01-19T18:41:15.731Z,-1.72
2023-01-19T18:43:47.825Z,-1.71
2023-01-19T18:46:18.456Z,-1.72
2023-01-19T18:48:48.318Z,-1.75
2023-01-19T18:51:18.830Z,-1.72
2023-01-19T18:53:48.598Z,-1.73
2023-01-19T18:56:18.579Z,-1.71
2023-01-19T18:58:49.966Z,-1.76
2023-01-19T19:01:24.802Z,-1.74
2023-01-19T19:03:56.606Z,-1.73
2023-01-19T19:06:28.004Z,-1.65
2023-01-19T19:09:00.273Z,-1.66
2023-01-19T19:11:30.441Z,-1.70
2023-01-19T19:14:04.159Z,-1.69
2023-01-19T19:16:36.642Z,-1.71
2023-01-19T19:19:08.502Z,-1.73
2023-01-19T19:21:38.196Z,-1.77
2023-01-19T19:24:09.064Z,-1.77
2023-01-19T19:26:38.830Z,-1.78
2023-01-19T19:29:10.177Z,-1.80
2023-01-19T19:31:40.283Z,-1.77
2023-01-19T19:34:12.424Z,-1.73
2023-01-19T19:36:42.379Z,-1.61
2023-01-19T19:39:13.132Z,-1.49
2023-01-19T19:41:42.874Z,-1.63
2023-01-19T19:44:13.988Z,-1.62
2023-01-19T19:46:43.691Z,-1.65
2023-01-19T19:49:13.399Z,-1.69
2023-01-19T19:51:43.370Z,-1.69
2023-01-19T19:54:13.019Z,-1.71
2023-01-19T19:56:42.832Z,-1.71
2023-01-19T19:59:14.593Z,-1.69
2023-01-19T20:01:45.275Z,-1.65
2023-01-19T20:04:19.937Z,-1.68
2023-01-19T20:06:50.616Z,-1.67
2023-01-19T20:09:20.295Z,-1.71
2023-01-19T20:11:50.226Z,-1.75
2023-01-19T20:14:22.508Z,-1.76
2023-01-19T20:16:52.752Z,-1.83
2023-01-19T20:19:22.453Z,-1.79
2023-01-19T20:21:52.302Z,-1.84
2023-01-19T20:24:22.768Z,-1.83
2023-01-19T20:26:56.240Z,-1.85
2023-01-19T20:29:27.147Z,-1.85
2023-01-19T20:31:57.970Z,-1.87
2023-01-19T20:34:33.380Z,-1.89
2023-01-19T20:37:06.122Z,-1.90
2023-01-19T20:39:37.205Z,-1.91
2023-01-19T20:42:11.227Z,-1.88
2023-01-19T20:44:42.550Z,-1.87
2023-01-19T20:47:12.287Z,-1.84
2023-01-19T20:49:42.303Z,-1.81
2023-01-19T20:52:12.268Z,-1.82
2023-01-19T20:54:42.049Z,-1.84
2023-01-19T20:57:11.865Z,-1.87
2023-01-19T20:59:44.110Z,-1.87
2023-01-19T21:02:15.119Z,-1.89
2023-01-19T21:04:45.042Z,-1.91
2023-01-19T21:07:14.653Z,-1.91
2023-01-19T21:09:44.333Z,-1.94
2023-01-19T21:12:16.089Z,-1.95
2023-01-19T21:14:47.344Z,-1.97
2023-01-19T21:17:17.065Z,-2.00
2023-01-19T21:19:48.392Z,-2.01
2023-01-19T21:22:18.221Z,-2.01
2023-01-19T21:24:48.698Z,-2.00
2023-01-19T21:27:18.402Z,-2.01
2023-01-19T21:29:50.700Z,-2.03
2023-01-19T21:32:20.415Z,-2.08
2023-01-19T21:34:50.195Z,-2.10
2023-01-19T21:37:19.931Z,-2.11
2023-01-19T21:39:49.696Z,-2.14
2023-01-19T21:42:19.382Z,-2.18
2023-01-19T21:44:52.064Z,-2.23
2023-01-19T21:47:21.784Z,-2.25
2023-01-19T21:49:51.457Z,-2.31
2023-01-19T21:52:21.321Z,-2.34
2023-01-19T21:54:52.051Z,-2.36
2023-01-19T21:57:21.703Z,-2.37
2023-01-19T21:59:52.795Z,-2.38
2023-01-19T22:02:37.572Z,-2.40
2023-01-19T22:05:09.776Z,-2.39
2023-01-19T22:07:39.600Z,-2.41
2023-01-19T22:10:12.647Z,-2.41
2023-01-19T22:12:42.516Z,-2.40
2023-01-19T22:15:14.376Z,-2.39
2023-01-19T22:17:45.419Z,-2.38
2023-01-19T22:20:15.381Z,-2.37
2023-01-19T22:22:45.154Z,-2.36
2023-01-19T22:25:15.785Z,-2.35
2023-01-19T22:27:45.528Z,-2.34
2023-01-19T22:30:18.031Z,-2.34
2023-01-19T22:32:48.387Z,-2.35
2023-01-19T22:35:18.242Z,-2.38
2023-01-19T22:37:47.951Z,-2.39
2023-01-19T22:40:20.191Z,-2.42
2023-01-19T22:42:50.912Z,-2.41
2023-01-19T22:45:22.052Z,-2.41
2023-01-19T22:47:51.842Z,-2.43
2023-01-19T22:50:23.805Z,-2.44
2023-01-19T22:52:57.909Z,-2.47
2023-01-19T22:55:30.822Z,-2.48
2023-01-19T22:58:02.540Z,-2.49
2023-01-19T23:00:33.690Z,-2.55
2023-01-19T23:03:03.393Z,-2.56
2023-01-19T23:05:36.920Z,-2.56
2023-01-19T23:08:07.292Z,-2.54
2023-01-19T23:10:40.666Z,-2.52
2023-01-19T23:13:10.304Z,-2.48
2023-01-19T23:15:41.686Z,-2.50
2023-01-19T23:18:11.482Z,-2.52
2023-01-19T23:20:41.314Z,-2.53
2023-01-19T23:23:11.345Z,-2.54
2023-01-19T23:25:42.547Z,-2.55
2023-01-19T23:28:12.410Z,-2.55
2023-01-19T23:30:46.787Z,-2.55
2023-01-19T23:33:16.497Z,-2.55
2023-01-19T23:35:46.203Z,-2.54
2023-01-19T23:38:15.998Z,-2.52
2023-01-19T23:40:45.697Z,-2.52
2023-01-19T23:43:16.073Z,-2.53
2023-01-19T23:45:47.119Z,-2.55
2023-01-19T23:48:16.793Z,-2.57
2023-01-19T23:50:46.503Z,-2.62
2023-01-19T23:53:16.203Z,-2.62
2023-01-19T23:55:45.892Z,-2.65
2023-01-19T23:58:15.631Z,-2.68
